sensor_id;sensor_type;location;lat;lon;timestamp;pressure;altitude;pressure_sealevel;temperature;humidity
49461;BME280;35355;49.198;-0.368;2024-01-11T00:01:11;102253.47;;;0.15;57.96
49461;BME280;35355;49.198;-0.368;2024-01-11T00:03:37;102258.34;;;0.20;58.36
49461;BME280;35355;49.198;-0.368;2024-01-11T00:06:03;102244.34;;;0.08;57.61
49461;BME280;35355;49.198;-0.368;2024-01-11T00:08:29;102249.94;;;0.15;58.25
49461;BME280;35355;49.198;-0.368;2024-01-11T00:10:58;102257.53;;;0.20;58.54
49461;BME280;35355;49.198;-0.368;2024-01-11T00:13:23;102255.47;;;0.13;58.07
49461;BME280;35355;49.198;-0.368;2024-01-11T00:15:49;102252.22;;;0.10;58.10
49461;BME280;35355;49.198;-0.368;2024-01-11T00:18:15;102253.94;;;0.11;58.59
49461;BME280;35355;49.198;-0.368;2024-01-11T00:20:40;102261.97;;;0.11;57.65
49461;BME280;35355;49.198;-0.368;2024-01-11T00:23:13;102250.00;;;0.05;57.94
49461;BME280;35355;49.198;-0.368;2024-01-11T00:25:39;102261.28;;;0.09;58.62
49461;BME280;35355;49.198;-0.368;2024-01-11T00:28:05;102269.47;;;0.07;58.71
49461;BME280;35355;49.198;-0.368;2024-01-11T00:30:30;102259.06;;;0.04;58.32
49461;BME280;35355;49.198;-0.368;2024-01-11T00:32:56;102265.97;;;0.07;58.53
49461;BME280;35355;49.198;-0.368;2024-01-11T00:35:24;102250.31;;;0.02;58.32
49461;BME280;35355;49.198;-0.368;2024-01-11T00:37:52;102258.91;;;0.06;58.35
49461;BME280;35355;49.198;-0.368;2024-01-11T00:40:18;102260.06;;;0.03;58.35
49461;BME280;35355;49.198;-0.368;2024-01-11T00:42:46;102272.16;;;0.07;58.25
49461;BME280;35355;49.198;-0.368;2024-01-11T00:45:15;102254.00;;;0.01;58.20
49461;BME280;35355;49.198;-0.368;2024-01-11T00:47:41;102231.09;;;-0.11;58.64
49461;BME280;35355;49.198;-0.368;2024-01-11T00:50:07;102268.50;;;0.08;58.28
49461;BME280;35355;49.198;-0.368;2024-01-11T00:52:34;102262.13;;;0.09;57.86
49461;BME280;35355;49.198;-0.368;2024-01-11T00:55:03;102270.03;;;0.11;57.72
49461;BME280;35355;49.198;-0.368;2024-01-11T00:57:30;102269.06;;;0.12;57.68
49461;BME280;35355;49.198;-0.368;2024-01-11T00:59:55;102259.47;;;0.09;57.98
49461;BME280;35355;49.198;-0.368;2024-01-11T01:02:21;102270.25;;;0.17;57.61
49461;BME280;35355;49.198;-0.368;2024-01-11T01:04:46;102272.09;;;0.17;58.48
49461;BME280;35355;49.198;-0.368;2024-01-11T01:07:12;102272.94;;;0.17;57.73
49461;BME280;35355;49.198;-0.368;2024-01-11T01:09:37;102270.19;;;0.09;57.60
49461;BME280;35355;49.198;-0.368;2024-01-11T01:12:03;102281.28;;;0.14;57.59
49461;BME280;35355;49.198;-0.368;2024-01-11T01:14:29;102273.19;;;0.06;57.54
49461;BME280;35355;49.198;-0.368;2024-01-11T01:16:57;102271.97;;;0.01;57.96
49461;BME280;35355;49.198;-0.368;2024-01-11T01:19:24;102280.63;;;0.12;58.05
49461;BME280;35355;49.198;-0.368;2024-01-11T01:21:50;102281.44;;;0.13;57.65
49461;BME280;35355;49.198;-0.368;2024-01-11T01:24:18;102277.38;;;0.09;58.11
49461;BME280;35355;49.198;-0.368;2024-01-11T01:26:44;102276.56;;;0.08;57.61
49461;BME280;35355;49.198;-0.368;2024-01-11T01:29:15;102281.91;;;0.08;58.11
49461;BME280;35355;49.198;-0.368;2024-01-11T01:31:43;102286.16;;;0.11;58.18
49461;BME280;35355;49.198;-0.368;2024-01-11T01:34:08;102283.63;;;0.09;57.61
49461;BME280;35355;49.198;-0.368;2024-01-11T01:36:40;102287.28;;;0.08;57.74
49461;BME280;35355;49.198;-0.368;2024-01-11T01:39:06;102295.75;;;0.13;57.67
49461;BME280;35355;49.198;-0.368;2024-01-11T01:41:31;102290.38;;;0.13;57.67
49461;BME280;35355;49.198;-0.368;2024-01-11T01:43:57;102287.84;;;0.12;57.84
49461;BME280;35355;49.198;-0.368;2024-01-11T01:46:23;102296.56;;;0.14;58.18
49461;BME280;35355;49.198;-0.368;2024-01-11T01:48:51;102307.69;;;0.19;57.91
49461;BME280;35355;49.198;-0.368;2024-01-11T01:51:20;102298.44;;;0.13;57.60
49461;BME280;35355;49.198;-0.368;2024-01-11T01:53:46;102299.94;;;0.16;58.36
49461;BME280;35355;49.198;-0.368;2024-01-11T01:56:12;102310.91;;;0.23;57.79
49461;BME280;35355;49.198;-0.368;2024-01-11T01:58:38;102310.38;;;0.19;57.67
49461;BME280;35355;49.198;-0.368;2024-01-11T02:01:04;102320.94;;;0.21;57.81
49461;BME280;35355;49.198;-0.368;2024-01-11T02:03:31;102318.28;;;0.21;58.13
49461;BME280;35355;49.198;-0.368;2024-01-11T02:05:57;102327.88;;;0.23;57.88
49461;BME280;35355;49.198;-0.368;2024-01-11T02:08:24;102319.75;;;0.15;58.01
49461;BME280;35355;49.198;-0.368;2024-01-11T02:10:51;102328.34;;;0.19;57.94
49461;BME280;35355;49.198;-0.368;2024-01-11T02:13:21;102330.50;;;0.15;58.39
49461;BME280;35355;49.198;-0.368;2024-01-11T02:15:47;102333.53;;;0.20;57.82
49461;BME280;35355;49.198;-0.368;2024-01-11T02:18:13;102349.03;;;0.26;58.07
49461;BME280;35355;49.198;-0.368;2024-01-11T02:20:38;102345.13;;;0.21;57.93
49461;BME280;35355;49.198;-0.368;2024-01-11T02:23:14;102340.22;;;0.16;58.75
49461;BME280;35355;49.198;-0.368;2024-01-11T02:25:40;102359.47;;;0.29;57.99
49461;BME280;35355;49.198;-0.368;2024-01-11T02:28:06;102333.59;;;0.10;57.69
49461;BME280;35355;49.198;-0.368;2024-01-11T02:30:33;102332.47;;;0.13;58.25
49461;BME280;35355;49.198;-0.368;2024-01-11T02:33:03;102360.03;;;0.33;57.85
49461;BME280;35355;49.198;-0.368;2024-01-11T02:35:32;102358.88;;;0.36;58.48
49461;BME280;35355;49.198;-0.368;2024-01-11T02:37:59;102365.31;;;0.43;58.07
49461;BME280;35355;49.198;-0.368;2024-01-11T02:40:29;102371.53;;;0.43;58.31
49461;BME280;35355;49.198;-0.368;2024-01-11T02:42:57;102356.34;;;0.34;57.93
49461;BME280;35355;49.198;-0.368;2024-01-11T02:45:26;102351.81;;;0.34;58.14
49461;BME280;35355;49.198;-0.368;2024-01-11T02:47:51;102369.22;;;0.48;58.35
49461;BME280;35355;49.198;-0.368;2024-01-11T02:50:17;102383.19;;;0.52;57.92
49461;BME280;35355;49.198;-0.368;2024-01-11T02:52:45;102371.75;;;0.50;58.78
49461;BME280;35355;49.198;-0.368;2024-01-11T02:55:11;102386.41;;;0.56;58.84
49461;BME280;35355;49.198;-0.368;2024-01-11T02:57:36;102361.78;;;0.42;58.69
49461;BME280;35355;49.198;-0.368;2024-01-11T03:00:02;102398.84;;;0.57;57.86
49461;BME280;35355;49.198;-0.368;2024-01-11T03:02:30;102378.72;;;0.43;58.34
49461;BME280;35355;49.198;-0.368;2024-01-11T03:04:56;102390.78;;;0.57;58.11
49461;BME280;35355;49.198;-0.368;2024-01-11T03:07:22;102356.72;;;0.39;58.35
49461;BME280;35355;49.198;-0.368;2024-01-11T03:09:48;102394.56;;;0.64;58.37
49461;BME280;35355;49.198;-0.368;2024-01-11T03:12:13;102384.13;;;0.61;58.76
49461;BME280;35355;49.198;-0.368;2024-01-11T03:14:39;102403.84;;;0.69;58.28
49461;BME280;35355;49.198;-0.368;2024-01-11T03:17:05;102391.41;;;0.68;58.72
49461;BME280;35355;49.198;-0.368;2024-01-11T03:19:39;102409.13;;;0.79;59.03
49461;BME280;35355;49.198;-0.368;2024-01-11T03:22:05;102395.84;;;0.78;58.93
49461;BME280;35355;49.198;-0.368;2024-01-11T03:24:32;102394.69;;;0.80;58.54
49461;BME280;35355;49.198;-0.368;2024-01-11T03:26:58;102418.63;;;0.92;58.40
49461;BME280;35355;49.198;-0.368;2024-01-11T03:29:23;102392.47;;;0.76;59.09
49461;BME280;35355;49.198;-0.368;2024-01-11T03:31:49;102384.56;;;0.74;58.87
49461;BME280;35355;49.198;-0.368;2024-01-11T03:34:15;102418.16;;;0.96;59.00
49461;BME280;35355;49.198;-0.368;2024-01-11T03:36:44;102403.19;;;0.94;58.38
49461;BME280;35355;49.198;-0.368;2024-01-11T03:39:10;102418.38;;;1.03;58.75
49461;BME280;35355;49.198;-0.368;2024-01-11T03:41:35;102389.16;;;0.82;58.59
49461;BME280;35355;49.198;-0.368;2024-01-11T03:44:01;102403.34;;;0.92;58.59
49461;BME280;35355;49.198;-0.368;2024-01-11T03:46:26;102417.06;;;1.07;58.26
49461;BME280;35355;49.198;-0.368;2024-01-11T03:48:52;102423.81;;;1.11;58.96
49461;BME280;35355;49.198;-0.368;2024-01-11T03:51:18;102407.78;;;1.01;58.77
49461;BME280;35355;49.198;-0.368;2024-01-11T03:53:43;102428.56;;;1.17;59.00
49461;BME280;35355;49.198;-0.368;2024-01-11T03:56:09;102424.00;;;1.18;58.97
49461;BME280;35355;49.198;-0.368;2024-01-11T03:58:38;102425.88;;;1.17;58.54
49461;BME280;35355;49.198;-0.368;2024-01-11T04:01:07;102423.34;;;1.16;58.88
49461;BME280;35355;49.198;-0.368;2024-01-11T04:03:37;102417.06;;;1.07;58.08
49461;BME280;35355;49.198;-0.368;2024-01-11T04:06:06;102420.44;;;1.09;58.40
49461;BME280;35355;49.198;-0.368;2024-01-11T04:08:32;102425.75;;;1.01;58.18
49461;BME280;35355;49.198;-0.368;2024-01-11T04:11:01;102413.63;;;0.97;58.97
49461;BME280;35355;49.198;-0.368;2024-01-11T04:13:30;102424.06;;;1.00;58.57
49461;BME280;35355;49.198;-0.368;2024-01-11T04:15:56;102413.09;;;0.93;58.85
49461;BME280;35355;49.198;-0.368;2024-01-11T04:18:21;102412.25;;;0.93;58.61
49461;BME280;35355;49.198;-0.368;2024-01-11T04:20:47;102411.34;;;0.84;58.60
49461;BME280;35355;49.198;-0.368;2024-01-11T04:23:12;102422.47;;;0.89;59.08
49461;BME280;35355;49.198;-0.368;2024-01-11T04:25:38;102426.47;;;0.85;58.91
49461;BME280;35355;49.198;-0.368;2024-01-11T04:28:04;102428.47;;;0.83;58.84
49461;BME280;35355;49.198;-0.368;2024-01-11T04:30:29;102436.38;;;0.84;58.69
49461;BME280;35355;49.198;-0.368;2024-01-11T04:32:55;102427.16;;;0.87;58.48
49461;BME280;35355;49.198;-0.368;2024-01-11T04:35:20;102420.25;;;0.84;58.58
49461;BME280;35355;49.198;-0.368;2024-01-11T04:37:48;102420.16;;;0.94;58.79
49461;BME280;35355;49.198;-0.368;2024-01-11T04:40:19;102416.63;;;0.94;59.03
49461;BME280;35355;49.198;-0.368;2024-01-11T04:42:45;102434.56;;;1.11;58.64
49461;BME280;35355;49.198;-0.368;2024-01-11T04:45:13;102431.25;;;1.17;59.57
49461;BME280;35355;49.198;-0.368;2024-01-11T04:47:44;102435.00;;;1.25;59.80
49461;BME280;35355;49.198;-0.368;2024-01-11T04:50:10;102434.00;;;1.26;58.99
49461;BME280;35355;49.198;-0.368;2024-01-11T04:52:36;102429.94;;;1.21;59.06
49461;BME280;35355;49.198;-0.368;2024-01-11T04:55:05;102424.88;;;1.18;58.91
49461;BME280;35355;49.198;-0.368;2024-01-11T04:57:30;102429.31;;;1.28;59.15
49461;BME280;35355;49.198;-0.368;2024-01-11T04:59:59;102439.75;;;1.31;59.07
49461;BME280;35355;49.198;-0.368;2024-01-11T05:02:24;102430.28;;;1.27;59.22
49461;BME280;35355;49.198;-0.368;2024-01-11T05:04:50;102399.97;;;1.16;59.24
49461;BME280;35355;49.198;-0.368;2024-01-11T05:07:16;102416.09;;;1.16;58.75
49461;BME280;35355;49.198;-0.368;2024-01-11T05:09:41;102423.53;;;1.22;59.00
49461;BME280;35355;49.198;-0.368;2024-01-11T05:12:14;102416.81;;;1.18;58.18
49461;BME280;35355;49.198;-0.368;2024-01-11T05:14:40;102411.03;;;1.13;58.85
49461;BME280;35355;49.198;-0.368;2024-01-11T05:17:05;102427.94;;;1.23;58.37
49461;BME280;35355;49.198;-0.368;2024-01-11T05:19:33;102390.81;;;1.01;58.40
49461;BME280;35355;49.198;-0.368;2024-01-11T05:21:59;102421.81;;;1.13;58.61
49461;BME280;35355;49.198;-0.368;2024-01-11T05:24:24;102430.25;;;1.18;58.71
49461;BME280;35355;49.198;-0.368;2024-01-11T05:26:51;102430.56;;;1.15;58.52
49461;BME280;35355;49.198;-0.368;2024-01-11T05:29:16;102401.88;;;0.98;58.73
49461;BME280;35355;49.198;-0.368;2024-01-11T05:31:42;102427.50;;;1.10;58.29
49461;BME280;35355;49.198;-0.368;2024-01-11T05:34:08;102424.44;;;1.05;58.36
49461;BME280;35355;49.198;-0.368;2024-01-11T05:36:37;102439.25;;;1.09;59.02
49461;BME280;35355;49.198;-0.368;2024-01-11T05:39:03;102447.88;;;1.13;58.64
49461;BME280;35355;49.198;-0.368;2024-01-11T05:41:29;102445.34;;;1.11;58.65
49461;BME280;35355;49.198;-0.368;2024-01-11T05:43:54;102446.31;;;1.10;58.97
49461;BME280;35355;49.198;-0.368;2024-01-11T05:46:20;102440.59;;;1.05;59.53
49461;BME280;35355;49.198;-0.368;2024-01-11T05:48:46;102443.31;;;1.13;59.10
49461;BME280;35355;49.198;-0.368;2024-01-11T05:51:11;102446.47;;;1.09;59.31
49461;BME280;35355;49.198;-0.368;2024-01-11T05:53:40;102462.84;;;1.15;59.57
49461;BME280;35355;49.198;-0.368;2024-01-11T05:56:09;102454.41;;;1.10;59.20
49461;BME280;35355;49.198;-0.368;2024-01-11T05:58:36;102452.69;;;1.09;59.58
49461;BME280;35355;49.198;-0.368;2024-01-11T06:01:08;102455.63;;;1.16;59.31
49461;BME280;35355;49.198;-0.368;2024-01-11T06:03:34;102455.22;;;1.11;59.33
49461;BME280;35355;49.198;-0.368;2024-01-11T06:06:07;102448.81;;;1.03;59.62
49461;BME280;35355;49.198;-0.368;2024-01-11T06:08:33;102463.88;;;1.22;60.21
49461;BME280;35355;49.198;-0.368;2024-01-11T06:11:02;102452.41;;;1.12;59.91
49461;BME280;35355;49.198;-0.368;2024-01-11T06:13:27;102479.75;;;1.26;60.05
49461;BME280;35355;49.198;-0.368;2024-01-11T06:15:53;102467.59;;;1.21;59.59
49461;BME280;35355;49.198;-0.368;2024-01-11T06:18:18;102477.22;;;1.24;60.00
49461;BME280;35355;49.198;-0.368;2024-01-11T06:20:44;102460.53;;;1.20;60.23
49461;BME280;35355;49.198;-0.368;2024-01-11T06:23:13;102467.28;;;1.25;59.82
49461;BME280;35355;49.198;-0.368;2024-01-11T06:25:47;102472.34;;;1.28;59.80
49461;BME280;35355;49.198;-0.368;2024-01-11T06:28:13;102463.44;;;1.27;60.19
49461;BME280;35355;49.198;-0.368;2024-01-11T06:30:41;102472.69;;;1.33;59.70
49461;BME280;35355;49.198;-0.368;2024-01-11T06:33:11;102475.38;;;1.33;60.38
49461;BME280;35355;49.198;-0.368;2024-01-11T06:35:39;102465.66;;;1.32;60.44
49461;BME280;35355;49.198;-0.368;2024-01-11T06:38:05;102482.84;;;1.39;60.63
49461;BME280;35355;49.198;-0.368;2024-01-11T06:40:32;102465.97;;;1.29;60.28
49461;BME280;35355;49.198;-0.368;2024-01-11T06:43:00;102478.09;;;1.33;59.96
49461;BME280;35355;49.198;-0.368;2024-01-11T06:45:29;102465.66;;;1.32;60.44
49461;BME280;35355;49.198;-0.368;2024-01-11T06:47:58;102496.66;;;1.44;59.94
49461;BME280;35355;49.198;-0.368;2024-01-11T06:50:25;102500.91;;;1.47;59.86
49461;BME280;35355;49.198;-0.368;2024-01-11T06:52:52;102507.81;;;1.49;60.00
49461;BME280;35355;49.198;-0.368;2024-01-11T06:55:21;102496.81;;;1.43;60.31
49461;BME280;35355;49.198;-0.368;2024-01-11T06:57:50;102516.88;;;1.48;60.01
49461;BME280;35355;49.198;-0.368;2024-01-11T07:00:19;102522.25;;;1.48;60.82
49461;BME280;35355;49.198;-0.368;2024-01-11T07:02:45;102533.72;;;1.50;60.45
49461;BME280;35355;49.198;-0.368;2024-01-11T07:05:12;102516.34;;;1.45;60.30
49461;BME280;35355;49.198;-0.368;2024-01-11T07:07:41;102536.72;;;1.47;60.26
49461;BME280;35355;49.198;-0.368;2024-01-11T07:10:07;102531.13;;;1.40;60.78
49461;BME280;35355;49.198;-0.368;2024-01-11T07:12:34;102539.72;;;1.44;60.66
49461;BME280;35355;49.198;-0.368;2024-01-11T07:14:59;102545.09;;;1.44;60.04
49461;BME280;35355;49.198;-0.368;2024-01-11T07:17:28;102526.00;;;1.29;60.75
49461;BME280;35355;49.198;-0.368;2024-01-11T07:19:53;102541.91;;;1.40;60.82
49461;BME280;35355;49.198;-0.368;2024-01-11T07:22:19;102548.94;;;1.42;60.44
49461;BME280;35355;49.198;-0.368;2024-01-11T07:24:47;102564.94;;;1.43;60.28
49461;BME280;35355;49.198;-0.368;2024-01-11T07:27:15;102552.97;;;1.37;60.86
49461;BME280;35355;49.198;-0.368;2024-01-11T07:29:40;102568.09;;;1.38;60.27
49461;BME280;35355;49.198;-0.368;2024-01-11T07:32:06;102574.66;;;1.36;60.35
49461;BME280;35355;49.198;-0.368;2024-01-11T07:34:40;102571.56;;;1.31;60.18
49461;BME280;35355;49.198;-0.368;2024-01-11T07:37:12;102574.25;;;1.31;60.67
49461;BME280;35355;49.198;-0.368;2024-01-11T07:39:41;102573.41;;;1.30;60.67
49461;BME280;35355;49.198;-0.368;2024-01-11T07:42:06;102582.72;;;1.36;60.74
49461;BME280;35355;49.198;-0.368;2024-01-11T07:44:35;102572.66;;;1.20;60.94
49461;BME280;35355;49.198;-0.368;2024-01-11T07:47:00;102590.78;;;1.36;60.43
49461;BME280;35355;49.198;-0.368;2024-01-11T07:49:26;102606.78;;;1.37;60.37
49461;BME280;35355;49.198;-0.368;2024-01-11T07:51:55;102608.25;;;1.32;60.31
49461;BME280;35355;49.198;-0.368;2024-01-11T07:54:22;102612.44;;;1.34;60.50
49461;BME280;35355;49.198;-0.368;2024-01-11T07:56:48;102605.47;;;1.23;60.87
49461;BME280;35355;49.198;-0.368;2024-01-11T07:59:17;102612.38;;;1.26;61.02
49461;BME280;35355;49.198;-0.368;2024-01-11T08:01:48;102624.13;;;1.25;60.91
49461;BME280;35355;49.198;-0.368;2024-01-11T08:04:14;102636.13;;;1.31;60.19
49461;BME280;35355;49.198;-0.368;2024-01-11T08:06:39;102634.13;;;1.33;60.40
49461;BME280;35355;49.198;-0.368;2024-01-11T08:09:05;102640.53;;;1.32;60.67
49461;BME280;35355;49.198;-0.368;2024-01-11T08:11:30;102635.16;;;1.32;60.00
49461;BME280;35355;49.198;-0.368;2024-01-11T08:13:56;102643.38;;;1.30;60.61
49461;BME280;35355;49.198;-0.368;2024-01-11T08:16:22;102649.59;;;1.31;59.86
49461;BME280;35355;49.198;-0.368;2024-01-11T08:18:48;102645.91;;;1.32;60.59
49461;BME280;35355;49.198;-0.368;2024-01-11T08:21:14;102646.75;;;1.32;60.23
49461;BME280;35355;49.198;-0.368;2024-01-11T08:23:43;102652.97;;;1.33;60.01
49461;BME280;35355;49.198;-0.368;2024-01-11T08:26:14;102648.81;;;1.38;60.10
49461;BME280;35355;49.198;-0.368;2024-01-11T08:28:42;102656.72;;;1.40;60.73
49461;BME280;35355;49.198;-0.368;2024-01-11T08:31:08;102655.44;;;1.44;60.61
49461;BME280;35355;49.198;-0.368;2024-01-11T08:33:36;102655.13;;;1.47;60.41
49461;BME280;35355;49.198;-0.368;2024-01-11T08:36:03;102664.28;;;1.54;60.26
49461;BME280;35355;49.198;-0.368;2024-01-11T08:38:32;102662.41;;;1.55;60.08
49461;BME280;35355;49.198;-0.368;2024-01-11T08:41:01;102668.03;;;1.62;60.68
49461;BME280;35355;49.198;-0.368;2024-01-11T08:43:28;102675.66;;;1.66;60.00
49461;BME280;35355;49.198;-0.368;2024-01-11T08:45:54;102670.41;;;1.65;60.43
49461;BME280;35355;49.198;-0.368;2024-01-11T08:48:23;102675.25;;;1.79;60.35
49461;BME280;35355;49.198;-0.368;2024-01-11T08:50:48;102682.03;;;1.83;60.52
49461;BME280;35355;49.198;-0.368;2024-01-11T08:53:14;102653.16;;;1.75;60.14
49461;BME280;35355;49.198;-0.368;2024-01-11T08:55:41;102668.41;;;1.85;60.37
49461;BME280;35355;49.198;-0.368;2024-01-11T08:58:13;102667.94;;;1.89;60.41
49461;BME280;35355;49.198;-0.368;2024-01-11T09:00:42;102677.41;;;1.93;60.19
49461;BME280;35355;49.198;-0.368;2024-01-11T09:03:09;102680.47;;;1.99;60.65
49461;BME280;35355;49.198;-0.368;2024-01-11T09:05:34;102685.53;;;2.02;60.56
49461;BME280;35355;49.198;-0.368;2024-01-11T09:08:00;102685.06;;;2.06;60.04
49461;BME280;35355;49.198;-0.368;2024-01-11T09:10:25;102683.91;;;2.09;60.54
49461;BME280;35355;49.198;-0.368;2024-01-11T09:12:51;102692.50;;;2.13;60.72
49461;BME280;35355;49.198;-0.368;2024-01-11T09:15:16;102679.91;;;2.13;60.56
49461;BME280;35355;49.198;-0.368;2024-01-11T09:17:42;102689.03;;;2.20;60.49
49461;BME280;35355;49.198;-0.368;2024-01-11T09:20:08;102688.72;;;2.23;60.15
49461;BME280;35355;49.198;-0.368;2024-01-11T09:22:34;102687.41;;;2.27;60.32
49461;BME280;35355;49.198;-0.368;2024-01-11T09:25:00;102686.38;;;2.28;60.15
49461;BME280;35355;49.198;-0.368;2024-01-11T09:27:26;102687.25;;;2.29;60.15
49461;BME280;35355;49.198;-0.368;2024-01-11T09:29:51;102689.81;;;2.39;59.97
49461;BME280;35355;49.198;-0.368;2024-01-11T09:32:17;102695.59;;;2.44;60.02
49461;BME280;35355;49.198;-0.368;2024-01-11T09:34:42;102702.88;;;2.52;59.88
49461;BME280;35355;49.198;-0.368;2024-01-11T09:37:11;102703.56;;;2.54;59.61
49461;BME280;35355;49.198;-0.368;2024-01-11T09:39:40;102706.09;;;2.55;59.84
49461;BME280;35355;49.198;-0.368;2024-01-11T09:42:10;102723.16;;;2.64;59.76
49461;BME280;35355;49.198;-0.368;2024-01-11T09:44:36;102724.53;;;2.68;59.40
49461;BME280;35355;49.198;-0.368;2024-01-11T09:47:10;102713.91;;;2.67;59.82
49461;BME280;35355;49.198;-0.368;2024-01-11T09:49:41;102712.53;;;2.62;59.43
49461;BME280;35355;49.198;-0.368;2024-01-11T09:52:08;102711.22;;;2.67;59.32
49461;BME280;35355;49.198;-0.368;2024-01-11T09:54:36;102709.88;;;2.71;59.10
49461;BME280;35355;49.198;-0.368;2024-01-11T09:57:04;102721.41;;;2.81;59.10
49461;BME280;35355;49.198;-0.368;2024-01-11T09:59:31;102724.44;;;2.78;59.41
49461;BME280;35355;49.198;-0.368;2024-01-11T10:01:58;102727.31;;;2.85;58.90
49461;BME280;35355;49.198;-0.368;2024-01-11T10:04:27;102740.16;;;2.91;59.44
49461;BME280;35355;49.198;-0.368;2024-01-11T10:06:54;102737.00;;;2.95;59.29
49461;BME280;35355;49.198;-0.368;2024-01-11T10:09:20;102734.78;;;2.99;59.14
49461;BME280;35355;49.198;-0.368;2024-01-11T10:11:49;102731.59;;;2.95;59.19
49461;BME280;35355;49.198;-0.368;2024-01-11T10:14:16;102753.19;;;3.04;59.13
49461;BME280;35355;49.198;-0.368;2024-01-11T10:16:47;102766.03;;;3.10;59.31
49461;BME280;35355;49.198;-0.368;2024-01-11T10:19:13;102765.03;;;3.11;59.28
49461;BME280;35355;49.198;-0.368;2024-01-11T10:21:40;102764.88;;;3.12;59.19
49461;BME280;35355;49.198;-0.368;2024-01-11T10:24:06;102763.53;;;3.16;59.15
49461;BME280;35355;49.198;-0.368;2024-01-11T10:26:32;102767.06;;;3.17;59.23
49461;BME280;35355;49.198;-0.368;2024-01-11T10:29:05;102771.47;;;3.18;59.22
49461;BME280;35355;49.198;-0.368;2024-01-11T10:31:36;102768.13;;;3.24;59.44
49461;BME280;35355;49.198;-0.368;2024-01-11T10:34:03;102774.56;;;3.31;59.13
49461;BME280;35355;49.198;-0.368;2024-01-11T10:36:35;102761.72;;;3.33;59.17
49461;BME280;35355;49.198;-0.368;2024-01-11T10:39:03;102766.50;;;3.40;59.33
49461;BME280;35355;49.198;-0.368;2024-01-11T10:41:40;102769.88;;;3.42;58.97
49461;BME280;35355;49.198;-0.368;2024-01-11T10:44:16;102775.16;;;3.51;58.95
49461;BME280;35355;49.198;-0.368;2024-01-11T10:46:44;102777.34;;;3.56;59.35
49461;BME280;35355;49.198;-0.368;2024-01-11T10:49:11;102767.22;;;3.58;59.01
49461;BME280;35355;49.198;-0.368;2024-01-11T10:51:41;102760.16;;;3.65;59.31
49461;BME280;35355;49.198;-0.368;2024-01-11T10:54:08;102760.16;;;3.65;59.34
49461;BME280;35355;49.198;-0.368;2024-01-11T10:56:35;102768.59;;;3.71;59.18
49461;BME280;35355;49.198;-0.368;2024-01-11T10:59:02;102749.72;;;3.71;59.24
49461;BME280;35355;49.198;-0.368;2024-01-11T11:01:28;102778.91;;;3.83;59.31
49461;BME280;35355;49.198;-0.368;2024-01-11T11:03:55;102757.81;;;3.71;59.28
49461;BME280;35355;49.198;-0.368;2024-01-11T11:06:22;102775.72;;;3.80;59.31
49461;BME280;35355;49.198;-0.368;2024-01-11T11:08:49;102751.22;;;3.65;59.38
49461;BME280;35355;49.198;-0.368;2024-01-11T11:11:17;102761.50;;;3.78;59.73
49461;BME280;35355;49.198;-0.368;2024-01-11T11:13:47;102741.91;;;3.67;59.40
49461;BME280;35355;49.198;-0.368;2024-01-11T11:16:15;102749.38;;;3.82;59.40
49461;BME280;35355;49.198;-0.368;2024-01-11T11:18:41;102756.97;;;3.86;59.79
49461;BME280;35355;49.198;-0.368;2024-01-11T11:21:09;102762.91;;;3.90;59.80
49461;BME280;35355;49.198;-0.368;2024-01-11T11:23:35;102762.91;;;3.90;60.05
49461;BME280;35355;49.198;-0.368;2024-01-11T11:26:01;102753.75;;;3.91;60.11
49461;BME280;35355;49.198;-0.368;2024-01-11T11:28:26;102750.91;;;3.93;59.67
49461;BME280;35355;49.198;-0.368;2024-01-11T11:30:52;102741.78;;;3.94;60.06
49461;BME280;35355;49.198;-0.368;2024-01-11T11:33:24;102727.09;;;3.96;59.97
49461;BME280;35355;49.198;-0.368;2024-01-11T11:35:54;102718.66;;;3.99;60.22
49461;BME280;35355;49.198;-0.368;2024-01-11T11:38:22;102716.59;;;4.01;60.07
49461;BME280;35355;49.198;-0.368;2024-01-11T11:40:51;102701.91;;;4.04;60.03
49461;BME280;35355;49.198;-0.368;2024-01-11T11:43:17;102693.63;;;4.06;59.70
49461;BME280;35355;49.198;-0.368;2024-01-11T11:45:44;102702.78;;;4.04;60.17
49461;BME280;35355;49.198;-0.368;2024-01-11T11:51:11;102732.50;;;4.21;60.12
49461;BME280;35355;49.198;-0.368;2024-01-11T11:53:38;102741.28;;;4.23;60.08
49461;BME280;35355;49.198;-0.368;2024-01-11T11:56:07;102731.28;;;4.24;60.29
49461;BME280;35355;49.198;-0.368;2024-01-11T11:58:38;102746.34;;;4.26;59.83
49461;BME280;35355;49.198;-0.368;2024-01-11T12:01:04;102746.00;;;4.29;59.97
49461;BME280;35355;49.198;-0.368;2024-01-11T12:03:31;102732.81;;;4.26;60.12
49461;BME280;35355;49.198;-0.368;2024-01-11T12:05:57;102733.50;;;4.28;60.52
49461;BME280;35355;49.198;-0.368;2024-01-11T12:08:24;102728.09;;;4.28;60.22
49461;BME280;35355;49.198;-0.368;2024-01-11T12:10:50;102726.06;;;4.30;59.59
49461;BME280;35355;49.198;-0.368;2024-01-11T12:13:17;102719.66;;;4.23;59.65
49461;BME280;35355;49.198;-0.368;2024-01-11T12:15:43;102723.00;;;4.25;59.53
49461;BME280;35355;49.198;-0.368;2024-01-11T12:18:08;102728.94;;;4.29;59.31
49461;BME280;35355;49.198;-0.368;2024-01-11T12:20:34;102727.41;;;4.26;59.43
49461;BME280;35355;49.198;-0.368;2024-01-11T12:23:00;102733.81;;;4.25;59.52
49461;BME280;35355;49.198;-0.368;2024-01-11T12:25:27;102734.84;;;4.24;59.46
49461;BME280;35355;49.198;-0.368;2024-01-11T12:27:53;102735.03;;;4.22;59.30
49461;BME280;35355;49.198;-0.368;2024-01-11T12:30:19;102727.09;;;4.21;59.05
49461;BME280;35355;49.198;-0.368;2024-01-11T12:32:47;102728.75;;;4.22;58.72
49461;BME280;35355;49.198;-0.368;2024-01-11T12:35:16;102735.03;;;4.22;58.78
49461;BME280;35355;49.198;-0.368;2024-01-11T12:37:55;102723.34;;;4.22;58.85
49461;BME280;35355;49.198;-0.368;2024-01-11T12:40:26;102721.50;;;4.22;58.80
49461;BME280;35355;49.198;-0.368;2024-01-11T12:42:56;102719.47;;;4.25;59.09
49461;BME280;35355;49.198;-0.368;2024-01-11T12:45:25;102723.00;;;4.25;58.74
49461;BME280;35355;49.198;-0.368;2024-01-11T12:47:55;102720.66;;;4.22;58.46
49461;BME280;35355;49.198;-0.368;2024-01-11T12:50:22;102713.41;;;4.22;58.08
49461;BME280;35355;49.198;-0.368;2024-01-11T12:53:13;102713.91;;;4.18;58.64